sensor_id;sensor_type;location;lat;lon;timestamp;P1;durP1;ratioP1;P2;durP2;ratioP2
68993;SDS011;56054;50.968;5.816;2023-07-16T00:02:27;2.67;;;1.20;;
68993;SDS011;56054;50.968;5.816;2023-07-16T00:05:35;7.82;;;1.45;;
68993;SDS011;56054;50.968;5.816;2023-07-16T00:08:43;5.75;;;1.20;;
68993;SDS011;56054;50.968;5.816;2023-07-16T00:11:50;1.75;;;1.00;;
68993;SDS011;56054;50.968;5.816;2023-07-16T00:14:57;8.00;;;1.40;;
68993;SDS011;56054;50.968;5.816;2023-07-16T00:18:04;5.80;;;1.35;;
68993;SDS011;56054;50.968;5.816;2023-07-16T00:21:11;5.22;;;1.15;;
68993;SDS011;56054;50.968;5.816;2023-07-16T00:24:18;4.07;;;1.10;;
68993;SDS011;56054;50.968;5.816;2023-07-16T00:27:25;3.75;;;1.00;;
68993;SDS011;56054;50.968;5.816;2023-07-16T00:30:32;5.93;;;1.00;;
68993;SDS011;56054;50.968;5.816;2023-07-16T00:33:41;6.05;;;1.20;;
68993;SDS011;56054;50.968;5.816;2023-07-16T00:36:49;3.03;;;1.10;;
68993;SDS011;56054;50.968;5.816;2023-07-16T00:39:56;9.50;;;1.17;;
68993;SDS011;56054;50.968;5.816;2023-07-16T00:43:03;4.22;;;1.20;;
68993;SDS011;56054;50.968;5.816;2023-07-16T00:46:10;7.25;;;1.95;;
68993;SDS011;56054;50.968;5.816;2023-07-16T00:49:19;5.32;;;2.25;;
68993;SDS011;56054;50.968;5.816;2023-07-16T00:52:26;5.30;;;1.20;;
68993;SDS011;56054;50.968;5.816;2023-07-16T00:55:36;2.95;;;1.27;;
68993;SDS011;56054;50.968;5.816;2023-07-16T00:58:43;1.48;;;1.10;;
68993;SDS011;56054;50.968;5.816;2023-07-16T01:01:51;7.55;;;1.30;;
68993;SDS011;56054;50.968;5.816;2023-07-16T01:04:58;3.47;;;1.48;;
68993;SDS011;56054;50.968;5.816;2023-07-16T01:08:06;2.05;;;1.20;;
68993;SDS011;56054;50.968;5.816;2023-07-16T01:11:16;3.53;;;1.75;;
68993;SDS011;56054;50.968;5.816;2023-07-16T01:14:27;6.68;;;1.50;;
68993;SDS011;56054;50.968;5.816;2023-07-16T01:17:38;5.85;;;1.13;;
68993;SDS011;56054;50.968;5.816;2023-07-16T01:20:46;4.80;;;1.73;;
68993;SDS011;56054;50.968;5.816;2023-07-16T01:30:38;8.15;;;1.50;;
68993;SDS011;56054;50.968;5.816;2023-07-16T01:33:50;6.30;;;2.30;;
68993;SDS011;56054;50.968;5.816;2023-07-16T01:36:58;7.43;;;1.40;;
68993;SDS011;56054;50.968;5.816;2023-07-16T01:40:09;4.35;;;2.00;;
68993;SDS011;56054;50.968;5.816;2023-07-16T01:43:16;7.28;;;1.40;;
68993;SDS011;56054;50.968;5.816;2023-07-16T01:46:23;5.55;;;1.30;;
68993;SDS011;56054;50.968;5.816;2023-07-16T01:49:30;9.48;;;1.52;;
68993;SDS011;56054;50.968;5.816;2023-07-16T01:52:37;8.15;;;1.88;;
68993;SDS011;56054;50.968;5.816;2023-07-16T01:55:44;5.20;;;1.08;;
68993;SDS011;56054;50.968;5.816;2023-07-16T01:58:51;7.78;;;1.73;;
68993;SDS011;56054;50.968;5.816;2023-07-16T02:01:58;13.40;;;1.60;;
68993;SDS011;56054;50.968;5.816;2023-07-16T02:05:05;10.57;;;1.38;;
68993;SDS011;56054;50.968;5.816;2023-07-16T02:08:19;4.47;;;1.73;;
68993;SDS011;56054;50.968;5.816;2023-07-16T02:11:26;7.43;;;1.73;;
68993;SDS011;56054;50.968;5.816;2023-07-16T02:14:33;9.48;;;1.70;;
68993;SDS011;56054;50.968;5.816;2023-07-16T02:17:40;9.07;;;1.58;;
68993;SDS011;56054;50.968;5.816;2023-07-16T02:20:50;4.72;;;1.50;;
68993;SDS011;56054;50.968;5.816;2023-07-16T02:23:57;6.60;;;1.60;;
68993;SDS011;56054;50.968;5.816;2023-07-16T02:27:04;6.43;;;1.95;;
68993;SDS011;56054;50.968;5.816;2023-07-16T02:30:11;10.77;;;2.03;;
68993;SDS011;56054;50.968;5.816;2023-07-16T02:33:20;10.90;;;1.92;;
68993;SDS011;56054;50.968;5.816;2023-07-16T02:36:27;5.95;;;1.48;;
68993;SDS011;56054;50.968;5.816;2023-07-16T02:39:34;5.65;;;1.30;;
68993;SDS011;56054;50.968;5.816;2023-07-16T02:42:42;11.25;;;2.28;;
68993;SDS011;56054;50.968;5.816;2023-07-16T02:45:49;6.25;;;1.80;;
68993;SDS011;56054;50.968;5.816;2023-07-16T02:48:56;7.70;;;2.13;;
68993;SDS011;56054;50.968;5.816;2023-07-16T02:52:04;7.07;;;1.77;;
68993;SDS011;56054;50.968;5.816;2023-07-16T02:55:12;10.32;;;2.45;;
68993;SDS011;56054;50.968;5.816;2023-07-16T02:58:19;11.85;;;1.98;;
68993;SDS011;56054;50.968;5.816;2023-07-16T03:01:27;7.75;;;2.83;;
68993;SDS011;56054;50.968;5.816;2023-07-16T03:04:34;10.38;;;1.88;;
68993;SDS011;56054;50.968;5.816;2023-07-16T03:07:42;7.35;;;2.13;;
68993;SDS011;56054;50.968;5.816;2023-07-16T03:10:51;5.90;;;1.63;;
68993;SDS011;56054;50.968;5.816;2023-07-16T03:13:58;6.20;;;1.75;;
68993;SDS011;56054;50.968;5.816;2023-07-16T03:17:06;8.85;;;1.75;;
68993;SDS011;56054;50.968;5.816;2023-07-16T03:20:13;4.82;;;2.10;;
68993;SDS011;56054;50.968;5.816;2023-07-16T03:23:20;7.00;;;2.15;;
68993;SDS011;56054;50.968;5.816;2023-07-16T03:26:29;10.90;;;3.03;;
68993;SDS011;56054;50.968;5.816;2023-07-16T03:29:36;10.68;;;2.33;;
68993;SDS011;56054;50.968;5.816;2023-07-16T03:32:47;6.55;;;2.03;;
68993;SDS011;56054;50.968;5.816;2023-07-16T03:35:57;6.55;;;2.33;;
68993;SDS011;56054;50.968;5.816;2023-07-16T03:39:05;10.98;;;2.58;;
68993;SDS011;56054;50.968;5.816;2023-07-16T03:42:12;5.43;;;1.90;;
68993;SDS011;56054;50.968;5.816;2023-07-16T03:45:20;9.95;;;1.95;;
68993;SDS011;56054;50.968;5.816;2023-07-16T03:48:27;7.88;;;1.80;;
68993;SDS011;56054;50.968;5.816;2023-07-16T03:51:34;6.00;;;1.60;;
68993;SDS011;56054;50.968;5.816;2023-07-16T03:54:41;11.85;;;2.08;;
68993;SDS011;56054;50.968;5.816;2023-07-16T03:57:48;3.83;;;1.40;;
68993;SDS011;56054;50.968;5.816;2023-07-16T04:00:55;8.57;;;1.80;;
68993;SDS011;56054;50.968;5.816;2023-07-16T04:04:02;5.88;;;1.92;;
68993;SDS011;56054;50.968;5.816;2023-07-16T04:07:09;9.20;;;1.98;;
68993;SDS011;56054;50.968;5.816;2023-07-16T04:10:16;8.73;;;1.67;;
68993;SDS011;56054;50.968;5.816;2023-07-16T04:13:24;11.45;;;2.00;;
68993;SDS011;56054;50.968;5.816;2023-07-16T04:16:31;7.82;;;2.45;;
68993;SDS011;56054;50.968;5.816;2023-07-16T04:19:38;6.68;;;1.98;;
68993;SDS011;56054;50.968;5.816;2023-07-16T04:22:45;9.25;;;2.20;;
68993;SDS011;56054;50.968;5.816;2023-07-16T04:25:52;12.77;;;3.03;;
68993;SDS011;56054;50.968;5.816;2023-07-16T04:29:00;7.70;;;2.60;;
68993;SDS011;56054;50.968;5.816;2023-07-16T04:32:07;6.63;;;2.38;;
68993;SDS011;56054;50.968;5.816;2023-07-16T04:35:14;6.25;;;2.35;;
68993;SDS011;56054;50.968;5.816;2023-07-16T04:38:21;9.52;;;2.63;;
68993;SDS011;56054;50.968;5.816;2023-07-16T04:41:28;6.80;;;2.38;;
68993;SDS011;56054;50.968;5.816;2023-07-16T04:44:35;10.73;;;2.60;;
68993;SDS011;56054;50.968;5.816;2023-07-16T04:47:42;16.67;;;2.78;;
68993;SDS011;56054;50.968;5.816;2023-07-16T04:50:50;8.52;;;2.97;;
68993;SDS011;56054;50.968;5.816;2023-07-16T04:53:57;16.10;;;4.03;;
68993;SDS011;56054;50.968;5.816;2023-07-16T04:57:05;8.60;;;3.05;;
68993;SDS011;56054;50.968;5.816;2023-07-16T05:00:13;10.07;;;3.00;;
68993;SDS011;56054;50.968;5.816;2023-07-16T05:03:20;11.50;;;3.15;;
68993;SDS011;56054;50.968;5.816;2023-07-16T05:06:27;7.95;;;3.15;;
68993;SDS011;56054;50.968;5.816;2023-07-16T05:09:34;7.38;;;3.30;;
68993;SDS011;56054;50.968;5.816;2023-07-16T05:12:41;17.45;;;3.75;;
68993;SDS011;56054;50.968;5.816;2023-07-16T05:15:48;13.18;;;3.67;;
68993;SDS011;56054;50.968;5.816;2023-07-16T05:18:55;9.63;;;3.33;;
68993;SDS011;56054;50.968;5.816;2023-07-16T05:22:02;14.13;;;3.78;;
68993;SDS011;56054;50.968;5.816;2023-07-16T05:25:09;7.45;;;3.13;;
68993;SDS011;56054;50.968;5.816;2023-07-16T05:28:17;8.25;;;3.72;;
68993;SDS011;56054;50.968;5.816;2023-07-16T05:31:25;13.90;;;3.45;;
68993;SDS011;56054;50.968;5.816;2023-07-16T05:34:32;9.43;;;3.72;;
68993;SDS011;56054;50.968;5.816;2023-07-16T05:37:39;8.30;;;3.10;;
68993;SDS011;56054;50.968;5.816;2023-07-16T05:40:46;8.80;;;3.75;;
68993;SDS011;56054;50.968;5.816;2023-07-16T05:43:53;8.30;;;3.78;;
68993;SDS011;56054;50.968;5.816;2023-07-16T05:47:00;11.63;;;3.67;;
68993;SDS011;56054;50.968;5.816;2023-07-16T05:50:07;10.60;;;3.25;;
68993;SDS011;56054;50.968;5.816;2023-07-16T05:53:14;14.50;;;3.90;;
68993;SDS011;56054;50.968;5.816;2023-07-16T05:56:21;10.63;;;3.97;;
68993;SDS011;56054;50.968;5.816;2023-07-16T05:59:28;7.80;;;3.80;;
68993;SDS011;56054;50.968;5.816;2023-07-16T06:02:35;10.25;;;3.42;;
68993;SDS011;56054;50.968;5.816;2023-07-16T06:05:42;10.30;;;3.55;;
68993;SDS011;56054;50.968;5.816;2023-07-16T06:08:49;8.25;;;3.95;;
68993;SDS011;56054;50.968;5.816;2023-07-16T06:11:56;12.50;;;3.60;;
68993;SDS011;56054;50.968;5.816;2023-07-16T06:15:03;9.82;;;4.35;;
68993;SDS011;56054;50.968;5.816;2023-07-16T06:18:10;16.58;;;4.43;;
68993;SDS011;56054;50.968;5.816;2023-07-16T06:21:17;12.77;;;4.13;;
68993;SDS011;56054;50.968;5.816;2023-07-16T06:24:24;12.18;;;4.22;;
68993;SDS011;56054;50.968;5.816;2023-07-16T06:27:31;15.80;;;4.38;;
68993;SDS011;56054;50.968;5.816;2023-07-16T06:30:38;10.30;;;3.70;;
68993;SDS011;56054;50.968;5.816;2023-07-16T06:33:45;12.13;;;4.55;;
68993;SDS011;56054;50.968;5.816;2023-07-16T06:36:52;11.20;;;4.63;;
68993;SDS011;56054;50.968;5.816;2023-07-16T06:39:59;16.23;;;4.47;;
68993;SDS011;56054;50.968;5.816;2023-07-16T06:43:06;16.08;;;4.28;;
68993;SDS011;56054;50.968;5.816;2023-07-16T06:46:13;12.80;;;4.90;;
68993;SDS011;56054;50.968;5.816;2023-07-16T06:49:21;13.82;;;4.50;;
68993;SDS011;56054;50.968;5.816;2023-07-16T06:52:28;11.07;;;4.30;;
68993;SDS011;56054;50.968;5.816;2023-07-16T06:55:35;8.35;;;3.78;;
68993;SDS011;56054;50.968;5.816;2023-07-16T06:58:43;8.10;;;4.63;;
68993;SDS011;56054;50.968;5.816;2023-07-16T07:01:50;13.20;;;5.07;;
68993;SDS011;56054;50.968;5.816;2023-07-16T07:04:57;18.65;;;4.90;;
68993;SDS011;56054;50.968;5.816;2023-07-16T07:08:04;15.35;;;4.10;;
68993;SDS011;56054;50.968;5.816;2023-07-16T07:11:11;14.00;;;4.60;;
68993;SDS011;56054;50.968;5.816;2023-07-16T07:14:18;14.77;;;4.75;;
68993;SDS011;56054;50.968;5.816;2023-07-16T07:17:25;11.88;;;4.22;;
68993;SDS011;56054;50.968;5.816;2023-07-16T07:20:32;14.60;;;4.82;;
68993;SDS011;56054;50.968;5.816;2023-07-16T07:23:39;15.15;;;4.20;;
68993;SDS011;56054;50.968;5.816;2023-07-16T07:26:46;14.27;;;4.20;;
68993;SDS011;56054;50.968;5.816;2023-07-16T07:30:00;10.23;;;4.35;;
68993;SDS011;56054;50.968;5.816;2023-07-16T07:33:07;10.75;;;3.97;;
68993;SDS011;56054;50.968;5.816;2023-07-16T07:36:14;8.52;;;3.05;;
68993;SDS011;56054;50.968;5.816;2023-07-16T07:39:21;8.75;;;4.10;;
68993;SDS011;56054;50.968;5.816;2023-07-16T07:42:31;9.95;;;4.00;;
68993;SDS011;56054;50.968;5.816;2023-07-16T07:45:38;9.25;;;4.57;;
68993;SDS011;56054;50.968;5.816;2023-07-16T07:48:45;15.82;;;5.15;;
68993;SDS011;56054;50.968;5.816;2023-07-16T07:51:52;9.60;;;4.43;;
68993;SDS011;56054;50.968;5.816;2023-07-16T07:54:59;8.98;;;3.88;;
68993;SDS011;56054;50.968;5.816;2023-07-16T07:58:07;11.43;;;4.45;;
68993;SDS011;56054;50.968;5.816;2023-07-16T08:01:14;16.00;;;4.75;;
68993;SDS011;56054;50.968;5.816;2023-07-16T08:04:21;10.90;;;4.22;;
68993;SDS011;56054;50.968;5.816;2023-07-16T08:07:28;10.38;;;3.70;;
68993;SDS011;56054;50.968;5.816;2023-07-16T08:10:35;10.95;;;4.15;;
68993;SDS011;56054;50.968;5.816;2023-07-16T08:13:42;11.40;;;4.07;;
68993;SDS011;56054;50.968;5.816;2023-07-16T08:16:49;10.32;;;4.45;;
68993;SDS011;56054;50.968;5.816;2023-07-16T08:19:57;9.68;;;4.15;;
68993;SDS011;56054;50.968;5.816;2023-07-16T08:23:04;14.77;;;3.95;;
68993;SDS011;56054;50.968;5.816;2023-07-16T08:26:11;14.55;;;4.15;;
68993;SDS011;56054;50.968;5.816;2023-07-16T08:29:18;10.50;;;3.67;;
68993;SDS011;56054;50.968;5.816;2023-07-16T08:32:26;12.48;;;4.32;;
68993;SDS011;56054;50.968;5.816;2023-07-16T08:35:33;7.32;;;3.53;;
68993;SDS011;56054;50.968;5.816;2023-07-16T08:38:43;11.23;;;3.28;;
68993;SDS011;56054;50.968;5.816;2023-07-16T08:41:50;10.93;;;3.83;;
68993;SDS011;56054;50.968;5.816;2023-07-16T08:44:57;10.45;;;3.70;;
68993;SDS011;56054;50.968;5.816;2023-07-16T08:48:04;10.20;;;3.40;;
68993;SDS011;56054;50.968;5.816;2023-07-16T08:51:13;9.70;;;3.50;;
68993;SDS011;56054;50.968;5.816;2023-07-16T08:54:21;7.68;;;3.35;;
68993;SDS011;56054;50.968;5.816;2023-07-16T08:57:29;8.88;;;3.88;;
68993;SDS011;56054;50.968;5.816;2023-07-16T09:00:36;11.77;;;3.60;;
68993;SDS011;56054;50.968;5.816;2023-07-16T09:03:44;10.45;;;4.00;;
68993;SDS011;56054;50.968;5.816;2023-07-16T09:06:51;11.07;;;4.45;;
68993;SDS011;56054;50.968;5.816;2023-07-16T09:09:58;10.23;;;3.65;;
68993;SDS011;56054;50.968;5.816;2023-07-16T09:13:06;9.10;;;3.38;;
68993;SDS011;56054;50.968;5.816;2023-07-16T09:16:13;13.02;;;4.53;;
68993;SDS011;56054;50.968;5.816;2023-07-16T09:19:20;7.00;;;3.13;;
68993;SDS011;56054;50.968;5.816;2023-07-16T09:22:29;7.57;;;2.95;;
68993;SDS011;56054;50.968;5.816;2023-07-16T09:25:36;9.73;;;4.15;;
68993;SDS011;56054;50.968;5.816;2023-07-16T09:28:43;7.95;;;3.58;;
68993;SDS011;56054;50.968;5.816;2023-07-16T09:31:55;10.38;;;3.45;;
68993;SDS011;56054;50.968;5.816;2023-07-16T09:35:12;7.15;;;3.03;;
68993;SDS011;56054;50.968;5.816;2023-07-16T09:38:20;9.80;;;3.58;;
68993;SDS011;56054;50.968;5.816;2023-07-16T09:41:28;7.25;;;3.47;;
68993;SDS011;56054;50.968;5.816;2023-07-16T09:44:35;9.35;;;3.50;;
68993;SDS011;56054;50.968;5.816;2023-07-16T09:47:44;9.57;;;3.35;;
68993;SDS011;56054;50.968;5.816;2023-07-16T09:50:53;7.88;;;2.92;;
68993;SDS011;56054;50.968;5.816;2023-07-16T09:54:01;13.30;;;3.13;;
68993;SDS011;56054;50.968;5.816;2023-07-16T09:57:09;7.38;;;3.13;;
68993;SDS011;56054;50.968;5.816;2023-07-16T10:00:17;9.18;;;3.40;;
68993;SDS011;56054;50.968;5.816;2023-07-16T10:03:25;8.63;;;2.95;;
68993;SDS011;56054;50.968;5.816;2023-07-16T10:06:32;10.70;;;2.78;;
68993;SDS011;56054;50.968;5.816;2023-07-16T10:12:56;8.23;;;2.80;;
68993;SDS011;56054;50.968;5.816;2023-07-16T10:16:07;7.90;;;2.20;;
68993;SDS011;56054;50.968;5.816;2023-07-16T10:19:14;7.80;;;2.28;;
68993;SDS011;56054;50.968;5.816;2023-07-16T10:22:31;8.18;;;2.78;;
68993;SDS011;56054;50.968;5.816;2023-07-16T10:26:01;5.57;;;2.45;;
68993;SDS011;56054;50.968;5.816;2023-07-16T10:29:08;5.93;;;2.30;;
68993;SDS011;56054;50.968;5.816;2023-07-16T10:32:15;5.72;;;2.60;;
68993;SDS011;56054;50.968;5.816;2023-07-16T10:35:22;7.20;;;2.47;;
68993;SDS011;56054;50.968;5.816;2023-07-16T10:38:29;6.20;;;2.78;;
68993;SDS011;56054;50.968;5.816;2023-07-16T10:41:36;9.20;;;2.88;;
68993;SDS011;56054;50.968;5.816;2023-07-16T10:44:43;7.30;;;2.75;;
68993;SDS011;56054;50.968;5.816;2023-07-16T10:47:52;9.15;;;2.85;;
68993;SDS011;56054;50.968;5.816;2023-07-16T10:51:00;6.20;;;2.50;;
68993;SDS011;56054;50.968;5.816;2023-07-16T10:54:07;12.75;;;2.97;;
68993;SDS011;56054;50.968;5.816;2023-07-16T10:57:14;10.90;;;3.47;;
68993;SDS011;56054;50.968;5.816;2023-07-16T11:00:21;7.20;;;2.70;;
68993;SDS011;56054;50.968;5.816;2023-07-16T11:03:29;11.55;;;3.35;;
68993;SDS011;56054;50.968;5.816;2023-07-16T11:06:36;6.03;;;2.88;;
68993;SDS011;56054;50.968;5.816;2023-07-16T11:09:47;7.70;;;3.17;;
68993;SDS011;56054;50.968;5.816;2023-07-16T11:12:55;9.73;;;2.67;;
68993;SDS011;56054;50.968;5.816;2023-07-16T11:16:08;10.05;;;2.97;;
68993;SDS011;56054;50.968;5.816;2023-07-16T11:19:19;8.40;;;2.83;;
68993;SDS011;56054;50.968;5.816;2023-07-16T11:22:27;7.00;;;2.55;;
68993;SDS011;56054;50.968;5.816;2023-07-16T11:25:34;9.75;;;2.53;;
68993;SDS011;56054;50.968;5.816;2023-07-16T11:28:41;6.13;;;2.65;;
68993;SDS011;56054;50.968;5.816;2023-07-16T11:31:49;7.15;;;2.58;;
68993;SDS011;56054;50.968;5.816;2023-07-16T11:34:57;6.47;;;2.55;;
68993;SDS011;56054;50.968;5.816;2023-07-16T11:38:05;5.65;;;2.72;;
68993;SDS011;56054;50.968;5.816;2023-07-16T11:41:12;8.38;;;2.72;;
68993;SDS011;56054;50.968;5.816;2023-07-16T11:44:19;8.18;;;2.80;;
68993;SDS011;56054;50.968;5.816;2023-07-16T11:47:26;7.63;;;2.40;;
68993;SDS011;56054;50.968;5.816;2023-07-16T11:50:34;4.68;;;2.20;;
68993;SDS011;56054;50.968;5.816;2023-07-16T11:53:41;8.48;;;2.47;;
68993;SDS011;56054;50.968;5.816;2023-07-16T11:56:48;5.78;;;2.03;;
68993;SDS011;56054;50.968;5.816;2023-07-16T11:59:55;9.15;;;2.40;;
68993;SDS011;56054;50.968;5.816;2023-07-16T12:03:05;8.13;;;2.35;;
68993;SDS011;56054;50.968;5.816;2023-07-16T12:06:11;5.30;;;2.28;;
68993;SDS011;56054;50.968;5.816;2023-07-16T12:09:19;5.95;;;2.20;;
68993;SDS011;56054;50.968;5.816;2023-07-16T12:12:26;5.07;;;2.05;;
68993;SDS011;56054;50.968;5.816;2023-07-16T12:15:33;7.68;;;2.58;;
68993;SDS011;56054;50.968;5.816;2023-07-16T12:18:40;4.35;;;2.17;;
68993;SDS011;56054;50.968;5.816;2023-07-16T12:21:47;6.57;;;2.30;;
68993;SDS011;56054;50.968;5.816;2023-07-16T12:24:57;6.57;;;2.00;;
68993;SDS011;56054;50.968;5.816;2023-07-16T12:28:06;5.47;;;2.30;;
68993;SDS011;56054;50.968;5.816;2023-07-16T12:31:14;5.05;;;2.13;;
68993;SDS011;56054;50.968;5.816;2023-07-16T12:34:21;6.00;;;1.60;;
68993;SDS011;56054;50.968;5.816;2023-07-16T12:37:28;5.53;;;2.25;;
68993;SDS011;56054;50.968;5.816;2023-07-16T12:40:35;3.33;;;1.73;;
68993;SDS011;56054;50.968;5.816;2023-07-16T12:43:42;3.63;;;1.77;;
68993;SDS011;56054;50.968;5.816;2023-07-16T12:46:49;6.05;;;1.88;;
68993;SDS011;56054;50.968;5.816;2023-07-16T12:49:56;5.60;;;2.30;;
68993;SDS011;56054;50.968;5.816;2023-07-16T12:53:03;8.85;;;2.22;;
68993;SDS011;56054;50.968;5.816;2023-07-16T12:56:10;5.20;;;2.03;;
68993;SDS011;56054;50.968;5.816;2023-07-16T12:59:17;4.75;;;1.90;;
68993;SDS011;56054;50.968;5.816;2023-07-16T13:02:24;6.00;;;2.22;;
68993;SDS011;56054;50.968;5.816;2023-07-16T13:05:31;10.10;;;2.95;;
68993;SDS011;56054;50.968;5.816;2023-07-16T13:08:47;6.88;;;2.65;;
68993;SDS011;56054;50.968;5.816;2023-07-16T13:11:54;5.60;;;2.33;;
68993;SDS011;56054;50.968;5.816;2023-07-16T13:15:01;6.20;;;2.42;;
68993;SDS011;56054;50.968;5.816;2023-07-16T13:18:11;5.13;;;2.30;;
68993;SDS011;56054;50.968;5.816;2023-07-16T13:21:18;5.75;;;2.20;;
68993;SDS011;56054;50.968;5.816;2023-07-16T13:24:25;7.82;;;2.28;;
68993;SDS011;56054;50.968;5.816;2023-07-16T13:27:32;5.18;;;2.28;;
68993;SDS011;56054;50.968;5.816;2023-07-16T13:30:39;5.68;;;2.33;;
68993;SDS011;56054;50.968;5.816;2023-07-16T13:33:46;9.25;;;2.50;;
68993;SDS011;56054;50.968;5.816;2023-07-16T13:36:53;6.53;;;2.70;;
68993;SDS011;56054;50.968;5.816;2023-07-16T13:40:00;6.30;;;2.85;;
68993;SDS011;56054;50.968;5.816;2023-07-16T13:43:07;5.95;;;2.67;;
68993;SDS011;56054;50.968;5.816;2023-07-16T13:46:14;6.15;;;2.42;;
68993;SDS011;56054;50.968;5.816;2023-07-16T13:49:21;7.72;;;3.95;;
68993;SDS011;56054;50.968;5.816;2023-07-16T13:52:30;6.78;;;2.67;;
68993;SDS011;56054;50.968;5.816;2023-07-16T13:55:37;6.97;;;3.03;;
68993;SDS011;56054;50.968;5.816;2023-07-16T13:58:44;7.25;;;2.70;;
68993;SDS011;56054;50.968;5.816;2023-07-16T14:02:01;10.43;;;3.38;;
68993;SDS011;56054;50.968;5.816;2023-07-16T14:05:08;8.93;;;2.97;;
68993;SDS011;56054;50.968;5.816;2023-07-16T14:08:15;7.38;;;2.90;;
68993;SDS011;56054;50.968;5.816;2023-07-16T14:11:22;5.28;;;2.72;;
68993;SDS011;56054;50.968;5.816;2023-07-16T14:14:29;6.95;;;2.60;;
68993;SDS011;56054;50.968;5.816;2023-07-16T14:17:36;4.35;;;2.63;;
68993;SDS011;56054;50.968;5.816;2023-07-16T14:20:43;9.05;;;2.75;;
68993;SDS011;56054;50.968;5.816;2023-07-16T14:23:50;7.00;;;2.10;;
68993;SDS011;56054;50.968;5.816;2023-07-16T14:26:58;7.68;;;2.70;;
68993;SDS011;56054;50.968;5.816;2023-07-16T14:30:07;8.45;;;2.60;;
68993;SDS011;56054;50.968;5.816;2023-07-16T14:33:16;7.22;;;2.80;;
68993;SDS011;56054;50.968;5.816;2023-07-16T14:36:23;7.55;;;2.75;;
68993;SDS011;56054;50.968;5.816;2023-07-16T14:39:30;4.05;;;2.22;;
68993;SDS011;56054;50.968;5.816;2023-07-16T14:42:37;9.98;;;3.13;;
68993;SDS011;56054;50.968;5.816;2023-07-16T14:45:44;5.63;;;2.42;;
68993;SDS011;56054;50.968;5.816;2023-07-16T14:48:51;10.25;;;3.10;;
68993;SDS011;56054;50.968;5.816;2023-07-16T14:51:59;4.20;;;2.30;;
68993;SDS011;56054;50.968;5.816;2023-07-16T14:55:06;5.38;;;2.85;;
68993;SDS011;56054;50.968;5.816;2023-07-16T14:58:13;9.18;;;2.78;;
68993;SDS011;56054;50.968;5.816;2023-07-16T15:01:29;9.18;;;2.70;;
68993;SDS011;56054;50.968;5.816;2023-07-16T15:04:36;10.68;;;3.13;;
68993;SDS011;56054;50.968;5.816;2023-07-16T15:07:43;4.18;;;2.15;;
68993;SDS011;56054;50.968;5.816;2023-07-16T15:10:50;4.72;;;2.28;;
68993;SDS011;56054;50.968;5.816;2023-07-16T15:13:57;9.52;;;3.28;;
68993;SDS011;56054;50.968;5.816;2023-07-16T15:17:04;4.97;;;2.45;;
68993;SDS011;56054;50.968;5.816;2023-07-16T15:20:11;8.68;;;2.58;;
68993;SDS011;56054;50.968;5.816;2023-07-16T15:23:18;5.50;;;2.10;;
68993;SDS011;56054;50.968;5.816;2023-07-16T15:26:25;6.05;;;2.17;;
68993;SDS011;56054;50.968;5.816;2023-07-16T15:29:32;12.15;;;3.13;;
68993;SDS011;56054;50.968;5.816;2023-07-16T15:32:40;7.28;;;2.95;;
68993;SDS011;56054;50.968;5.816;2023-07-16T15:35:47;11.02;;;3.88;;
68993;SDS011;56054;50.968;5.816;2023-07-16T15:38:54;6.53;;;2.80;;
68993;SDS011;56054;50.968;5.816;2023-07-16T15:42:01;6.93;;;3.22;;
68993;SDS011;56054;50.968;5.816;2023-07-16T15:45:09;5.93;;;2.47;;
68993;SDS011;56054;50.968;5.816;2023-07-16T15:48:16;5.43;;;2.42;;
68993;SDS011;56054;50.968;5.816;2023-07-16T15:51:23;7.00;;;2.53;;
68993;SDS011;56054;50.968;5.816;2023-07-16T15:54:30;5.20;;;2.55;;
68993;SDS011;56054;50.968;5.816;2023-07-16T15:57:37;9.05;;;2.55;;
68993;SDS011;56054;50.968;5.816;2023-07-16T16:00:45;5.75;;;2.85;;
68993;SDS011;56054;50.968;5.816;2023-07-16T16:03:52;6.03;;;2.95;;
68993;SDS011;56054;50.968;5.816;2023-07-16T16:07:00;7.10;;;2.90;;
68993;SDS011;56054;50.968;5.816;2023-07-16T16:10:07;6.00;;;2.60;;
68993;SDS011;56054;50.968;5.816;2023-07-16T16:13:15;9.65;;;4.22;;
68993;SDS011;56054;50.968;5.816;2023-07-16T16:16:22;10.05;;;2.85;;
68993;SDS011;56054;50.968;5.816;2023-07-16T16:19:29;9.07;;;3.00;;
68993;SDS011;56054;50.968;5.816;2023-07-16T16:22:36;6.53;;;2.65;;
68993;SDS011;56054;50.968;5.816;2023-07-16T16:25:43;9.13;;;3.05;;
68993;SDS011;56054;50.968;5.816;2023-07-16T16:28:50;5.40;;;2.60;;
68993;SDS011;56054;50.968;5.816;2023-07-16T16:31:57;9.50;;;2.53;;
68993;SDS011;56054;50.968;5.816;2023-07-16T16:35:04;6.30;;;2.47;;
68993;SDS011;56054;50.968;5.816;2023-07-16T16:38:11;9.10;;;2.95;;
68993;SDS011;56054;50.968;5.816;2023-07-16T16:41:18;8.25;;;3.10;;
68993;SDS011;56054;50.968;5.816;2023-07-16T16:44:25;8.82;;;2.78;;
68993;SDS011;56054;50.968;5.816;2023-07-16T16:47:32;6.03;;;2.95;;
68993;SDS011;56054;50.968;5.816;2023-07-16T16:50:40;8.20;;;3.00;;
68993;SDS011;56054;50.968;5.816;2023-07-16T16:53:47;6.55;;;2.60;;
68993;SDS011;56054;50.968;5.816;2023-07-16T16:56:55;6.07;;;2.58;;
68993;SDS011;56054;50.968;5.816;2023-07-16T17:00:02;8.65;;;3.05;;
68993;SDS011;56054;50.968;5.816;2023-07-16T17:03:09;10.52;;;2.92;;
68993;SDS011;56054;50.968;5.816;2023-07-16T17:06:16;11.05;;;2.78;;
68993;SDS011;56054;50.968;5.816;2023-07-16T17:09:23;8.77;;;2.40;;
68993;SDS011;56054;50.968;5.816;2023-07-16T17:12:30;7.65;;;2.53;;
68993;SDS011;56054;50.968;5.816;2023-07-16T17:15:37;8.73;;;3.10;;
68993;SDS011;56054;50.968;5.816;2023-07-16T17:18:45;7.35;;;3.17;;
68993;SDS011;56054;50.968;5.816;2023-07-16T17:21:51;6.72;;;3.17;;
68993;SDS011;56054;50.968;5.816;2023-07-16T17:24:58;9.23;;;3.50;;
68993;SDS011;56054;50.968;5.816;2023-07-16T17:28:05;7.10;;;2.75;;
68993;SDS011;56054;50.968;5.816;2023-07-16T17:31:12;8.70;;;3.17;;
68993;SDS011;56054;50.968;5.816;2023-07-16T17:34:19;9.45;;;2.83;;
68993;SDS011;56054;50.968;5.816;2023-07-16T17:37:26;8.88;;;2.88;;
68993;SDS011;56054;50.968;5.816;2023-07-16T17:40:33;10.88;;;3.35;;
68993;SDS011;56054;50.968;5.816;2023-07-16T17:43:40;7.30;;;3.10;;
68993;SDS011;56054;50.968;5.816;2023-07-16T17:46:47;12.82;;;3.13;;
68993;SDS011;56054;50.968;5.816;2023-07-16T17:49:54;10.52;;;3.22;;
68993;SDS011;56054;50.968;5.816;2023-07-16T17:53:02;7.53;;;2.78;;
68993;SDS011;56054;50.968;5.816;2023-07-16T17:56:09;14.10;;;3.30;;
68993;SDS011;56054;50.968;5.816;2023-07-16T17:59:16;6.95;;;3.25;;
68993;SDS011;56054;50.968;5.816;2023-07-16T18:02:23;11.77;;;3.45;;
68993;SDS011;56054;50.968;5.816;2023-07-16T18:05:30;12.65;;;3.22;;
68993;SDS011;56054;50.968;5.816;2023-07-16T18:08:37;8.95;;;3.47;;
68993;SDS011;56054;50.968;5.816;2023-07-16T18:11:44;8.27;;;3.33;;
68993;SDS011;56054;50.968;5.816;2023-07-16T18:14:51;9.48;;;3.00;;
68993;SDS011;56054;50.968;5.816;2023-07-16T18:17:58;6.25;;;2.90;;
68993;SDS011;56054;50.968;5.816;2023-07-16T18:21:05;6.65;;;3.00;;
68993;SDS011;56054;50.968;5.816;2023-07-16T18:24:12;7.57;;;2.60;;
68993;SDS011;56054;50.968;5.816;2023-07-16T18:27:22;6.82;;;2.88;;
68993;SDS011;56054;50.968;5.816;2023-07-16T18:30:28;11.15;;;3.03;;
68993;SDS011;56054;50.968;5.816;2023-07-16T18:33:35;8.55;;;2.80;;
68993;SDS011;56054;50.968;5.816;2023-07-16T18:36:43;8.05;;;3.72;;
68993;SDS011;56054;50.968;5.816;2023-07-16T18:39:53;7.45;;;2.45;;
68993;SDS011;56054;50.968;5.816;2023-07-16T18:43:00;8.75;;;3.55;;
68993;SDS011;56054;50.968;5.816;2023-07-16T18:46:07;10.55;;;3.10;;
68993;SDS011;56054;50.968;5.816;2023-07-16T18:49:14;20.05;;;3.50;;
68993;SDS011;56054;50.968;5.816;2023-07-16T18:52:22;7.78;;;2.53;;
68993;SDS011;56054;50.968;5.816;2023-07-16T18:55:36;6.70;;;2.47;;